^^

..:: Storico WU ::..




Lo storico viene creato da WUnderground con i dati che la stazione Meteomincio invia al loro server. L' aggiornamento viene fatto ogni 5 minuti circa, tuttavia possono esserci intervalli pi¨ ampi a causa di errori, interruzioni di servizio o problemi nell' invio tramite FTP.


Storico stazione MeteoMincio
Giorno Sommario per Dicembre 01, 2022 Unità:  Inglese    Metrico   Entrambi
Giorno Settimana Mese Anno
  Max: Min: Media:
Temperatura: 46.8 °F 36.9 °F 40.5 °F
Dew Point: 42.1 °F 35.1 °F 38.1 °F
Umidità: 96% 83% 92%
Velocità vento: 5.8mph 0mph 2.6mph
Raffica: 9.2mph - -
Direzione- - West
Pressione: 30.1 in 30.1 in -
Precipitazioni: 0 in    
 
 
Tabulato Dati per Dicembre 01, 2022
Ora Temperatura Dew Point Pressione Direzione Velocità vento Raffica Umidità Intensità pioggia (oraria) Info solare Situazione
00:04 41 °F 38.5 °F 30.1 in West 3.1 mph 5 mph 91% 0 in 0 W/m2
00:09 40.8 °F 38.5 °F 30.1 in WNW 3.8 mph 5 mph 91% 0 in 0 W/m2
00:14 41 °F 38.5 °F 30.1 in WNW 3.4 mph 5 mph 91% 0 in 0 W/m2
00:19 40.8 °F 38.1 °F 30.1 in West 2.8 mph 5 mph 90.2% 0 in 0 W/m2
00:24 40.6 °F 38.1 °F 30.1 in WNW 3.1 mph 5 mph 90.8% 0 in 0 W/m2
00:29 40.5 °F 37.9 °F 30.1 in WNW 3.7 mph 6 mph 91% 0 in 0 W/m2
00:34 40.5 °F 38.1 °F 30.1 in WNW 4.5 mph 7 mph 91% 0 in 0 W/m2
00:39 40.5 °F 38.1 °F 30.1 in West 4.3 mph 7 mph 91% 0 in 0 W/m2
00:44 40.5 °F 38.1 °F 30.1 in West 3.9 mph 7 mph 91% 0 in 0 W/m2
00:49 40.3 °F 37.9 °F 30.1 in WNW 3.9 mph 6 mph 91% 0 in 0 W/m2
00:54 40.3 °F 37.8 °F 30.1 in West 3.4 mph 6 mph 91% 0 in 0 W/m2
00:59 40.1 °F 37.6 °F 30.1 in West 2.4 mph 6 mph 91% 0 in 0 W/m2
01:04 39.9 °F 37.6 °F 30.1 in West 3.9 mph 6 mph 91% 0 in 0 W/m2
01:09 39.9 °F 37.6 °F 30.1 in West 3 mph 6 mph 91% 0 in 0 W/m2
01:14 39.9 °F 37.4 °F 30.1 in West 2.4 mph 5 mph 91% 0 in 0 W/m2
01:19 39.7 °F 37.4 °F 30.1 in West 3 mph 4 mph 91% 0 in 0 W/m2
01:24 39.7 °F 37.6 °F 30.1 in West 1.8 mph 5 mph 91.8% 0 in 0 W/m2
01:29 39.7 °F 37.4 °F 30.1 in West 2.3 mph 5 mph 91.2% 0 in 0 W/m2
01:34 39.7 °F 37.6 °F 30.1 in West 3.4 mph 6 mph 91.8% 0 in 0 W/m2
01:39 39.7 °F 37.6 °F 30.1 in West 0.9 mph 6 mph 92% 0 in 0 W/m2
01:44 39.7 °F 37.6 °F 30.1 in West 1.5 mph 4 mph 92% 0 in 0 W/m2
01:49 39.7 °F 37.6 °F 30.1 in West 3.2 mph 6 mph 92% 0 in 0 W/m2
01:54 39.7 °F 37.8 °F 30.1 in West 2.1 mph 6 mph 92% 0 in 0 W/m2
01:59 39.7 °F 37.8 °F 30.1 in West 0.2 mph 4 mph 92% 0 in 0 W/m2
02:04 39.7 °F 37.8 °F 30.1 in West 0.7 mph 3 mph 92% 0 in 0 W/m2
02:09 39.7 °F 37.6 °F 30.1 in West 3 mph 6 mph 92% 0 in 0 W/m2
02:14 39.9 °F 37.8 °F 30.1 in West 1.9 mph 3.5 mph 92% 0 in 0 W/m2
02:19 39.9 °F 37.8 °F 30.1 in West 0.9 mph 3 mph 92% 0 in 0 W/m2
02:24 39.7 °F 37.8 °F 30.1 in West 1.6 mph 4 mph 92% 0 in 0 W/m2
02:29 39.6 °F 37.2 °F 30.1 in WSW 2.2 mph 4 mph 91.3% 0 in 0 W/m2
02:34 39.4 °F 37.2 °F 30.1 in WSW 0.1 mph 4 mph 91.8% 0 in 0 W/m2
02:39 39.4 °F 37.4 °F 30.1 in WSW 1.2 mph 3.5 mph 92% 0 in 0 W/m2
02:44 39.4 °F 37.2 °F 30.1 in WSW 0.4 mph 3 mph 92% 0 in 0 W/m2
02:49 39.2 °F 37 °F 30.1 in WSW 0.9 mph 3.5 mph 92% 0 in 0 W/m2
02:54 39 °F 37 °F 30.1 in West 1.4 mph 3.5 mph 92% 0 in 0 W/m2
02:59 39 °F 37 °F 30.1 in West 1.7 mph 4 mph 92% 0 in 0 W/m2
03:04 39 °F 36.9 °F 30.1 in WSW 0.6 mph 4 mph 92% 0 in 0 W/m2
03:09 39 °F 36.9 °F 30.1 in West 1.1 mph 4 mph 92% 0 in 0 W/m2
03:14 38.8 °F 36.9 °F 30.1 in West 2.4 mph 4 mph 92.6% 0 in 0 W/m2
03:19 38.8 °F 37 °F 30.1 in West 1.7 mph 4 mph 93% 0 in 0 W/m2
03:24 38.8 °F 37 °F 30.1 in West 2.5 mph 4 mph 92.8% 0 in 0 W/m2
03:29 39 °F 37 °F 30.1 in WNW 2.6 mph 4 mph 93% 0 in 0 W/m2
03:34 39 °F 37.2 °F 30.1 in West 2.1 mph 4 mph 93% 0 in 0 W/m2
03:39 39 °F 37.2 °F 30.1 in West 2.3 mph 4 mph 93% 0 in 0 W/m2
03:44 39.2 °F 37.2 °F 30.1 in WNW 2.7 mph 4 mph 93% 0 in 0 W/m2
03:49 39.2 °F 37.2 °F 30.1 in WNW 2 mph 4 mph 93% 0 in 0 W/m2
03:54 39.2 °F 37.2 °F 30.1 in WNW 1.6 mph 4 mph 93% 0 in 0 W/m2
03:59 39.2 °F 37.2 °F 30.1 in WNW 0.2 mph 2.3 mph 92.5% 0 in 0 W/m2
04:04 39.2 °F 37.2 °F 30.1 in Calm   1 mph 93% 0 in 0 W/m2
04:09 39.2 °F 37.2 °F 30.1 in WNW 0.9 mph 3.5 mph 93% 0 in 0 W/m2
04:14 39.2 °F 37.2 °F 30.1 in WNW 1.8 mph 3.5 mph 93% 0 in 0 W/m2
04:19 39.2 °F 37.2 °F 30.1 in West 1.9 mph 3.5 mph 93% 0 in 0 W/m2
04:24 39.2 °F 37.2 °F 30.1 in West 0.5 mph 3 mph 93% 0 in 0 W/m2
04:29 39 °F 37.2 °F 30.1 in West 1.5 mph 4 mph 93% 0 in 0 W/m2
04:34 39 °F 37.2 °F 30.1 in WNW 2.8 mph 5 mph 93% 0 in 0 W/m2
04:39 39.2 °F 37.2 °F 30.1 in West 1.6 mph 5 mph 93% 0 in 0 W/m2
04:44 39.2 °F 37.4 °F 30.1 in West 2.1 mph 4 mph 93% 0 in 0 W/m2
04:49 39.2 °F 37.4 °F 30.1 in WSW 2.1 mph 4 mph 93% 0 in 0 W/m2
04:54 39.2 °F 37.2 °F 30.1 in WSW 0.7 mph 3 mph 93% 0 in 0 W/m2
04:59 39.2 °F 37.2 °F 30.1 in West 1.2 mph 3 mph 93% 0 in 0 W/m2
05:04 39 °F 37.2 °F 30.1 in West 2.2 mph 3.5 mph 93% 0 in 0 W/m2
05:09 39 °F 37.2 °F 30.1 in West 1.8 mph 3.5 mph 93% 0 in 0 W/m2
05:14 39 °F 37 °F 30.1 in West 2.2 mph 4 mph 93% 0 in 0 W/m2
05:19 39 °F 37.2 °F 30.1 in West 2.7 mph 4 mph 93% 0 in 0 W/m2
05:24 39 °F 37.2 °F 30.1 in West 1.7 mph 4 mph 93% 0 in 0 W/m2
05:29 39 °F 37.2 °F 30.1 in WNW 1.4 mph 3.5 mph 93% 0 in 0 W/m2
05:34 39.2 °F 37.2 °F 30.1 in WNW 1.6 mph 3.5 mph 93% 0 in 0 W/m2
05:39 39.2 °F 37.2 °F 30.1 in West 1.6 mph 3.5 mph 93% 0 in 0 W/m2
05:44 39.2 °F 37.2 °F 30.1 in West 1.2 mph 3 mph 93% 0 in 0 W/m2
05:49 39.2 °F 37.2 °F 30.1 in West 1.7 mph 3.5 mph 93% 0 in 0 W/m2
05:54 39 °F 37.2 °F 30.1 in WSW 2.5 mph 4 mph 93% 0 in 0 W/m2
05:59 39 °F 37.2 °F 30.1 in West 0.9 mph 4 mph 93% 0 in 0 W/m2
06:04 39 °F 37 °F 30.1 in West 2.9 mph 4 mph 93% 0 in 0 W/m2
06:09 39 °F 37 °F 30.1 in West 2.5 mph 4 mph 93% 0 in 0 W/m2
06:14 39 °F 37 °F 30.1 in West 1.2 mph 3.5 mph 93% 0 in 0 W/m2
06:19 39 °F 37 °F 30.1 in West 1.5 mph 3.5 mph 93% 0 in 0 W/m2
06:24 39 °F 37 °F 30.1 in West 2.4 mph 3.5 mph 93% 0 in 0 W/m2
06:29 38.8 °F 37 °F 30.1 in West 2.9 mph 5 mph 93% 0 in 0 W/m2
06:34 38.8 °F 37 °F 30.1 in West 3.4 mph 5 mph 93% 0 in 0 W/m2
06:39 38.8 °F 36.9 °F 30.1 in West 4 mph 6 mph 93% 0 in 0 W/m2
06:44 38.7 °F 36.9 °F 30.1 in West 3.9 mph 6 mph 93% 0 in 0 W/m2
06:49 38.7 °F 36.9 °F 30.1 in West 4 mph 6 mph 93% 0 in 0 W/m2
06:54 38.5 °F 36.7 °F 30.1 in West 3.4 mph 5 mph 93% 0 in 0 W/m2
06:59 38.5 °F 36.7 °F 30.1 in West 3.1 mph 5 mph 93% 0 in 0 W/m2
07:04 38.5 °F 36.7 °F 30.1 in West 3.5 mph 6 mph 93% 0 in 0 W/m2
07:09 38.5 °F 36.7 °F 30.1 in West 4.2 mph 7 mph 93% 0 in 0 W/m2
07:14 38.3 °F 36.5 °F 30.1 in WNW 4.4 mph 8.1 mph 93% 0 in 0 W/m2
07:19 38.3 °F 36.5 °F 30.1 in WNW 4.7 mph 8.1 mph 93% 0 in 0 W/m2
07:24 38.3 °F 36.5 °F 30.1 in West 2.6 mph 8 mph 93% 0 in 0 W/m2
07:29 38.3 °F 36.5 °F 30.1 in West 3.4 mph 5 mph 93% 0 in 0 W/m2
07:34 38.3 °F 36.5 °F 30.1 in West 3 mph 5 mph 93% 0 in 0 W/m2
07:39 38.3 °F 36.5 °F 30.1 in West 4.4 mph 7 mph 93% 0 in 0 W/m2
07:44 38.1 °F 36.3 °F 30.1 in West 3.6 mph 7 mph 93% 0 in 0 W/m2
07:49 37.9 °F 36.1 °F 30.1 in West 2.9 mph 7 mph 93% 0 in 0 W/m2
07:54 37.9 °F 36.1 °F 30.1 in West 3.8 mph 6 mph 93% 0 in 7 W/m2
07:59 37.8 °F 36 °F 30.1 in WNW 4.5 mph 7 mph 93% 0 in 12 W/m2
08:04 37.6 °F 35.8 °F 30.1 in West 3.9 mph 7 mph 93% 0 in 16 W/m2
08:09 37.4 °F 35.6 °F 30.1 in WNW 4.5 mph 8 mph 93% 0 in 25 W/m2
08:14 37 °F 35.2 °F 30.1 in WNW 5.7 mph 8.1 mph 93% 0 in 28 W/m2
08:19 36.9 °F 35.1 °F 30.1 in WNW 5.4 mph 8.1 mph 93% 0 in 33 W/m2
08:24 36.9 °F 35.1 °F 30.1 in West 4.4 mph 8 mph 93% 0 in 40 W/m2
08:29 36.9 °F 35.1 °F 30.1 in West 4.8 mph 8 mph 93% 0 in 44 W/m2
08:34 37 °F 35.2 °F 30.1 in WNW 3.7 mph 7 mph 93% 0 in 49 W/m2
08:39 37 °F 35.2 °F 30.1 in West 3.8 mph 7 mph 93% 0 in 56 W/m2
08:44 37 °F 35.2 °F 30.1 in WNW 4 mph 7 mph 93% 0 in 56 W/m2
08:49 37.2 °F 35.4 °F 30.1 in WNW 4 mph 7 mph 93% 0 in 58 W/m2
08:54 37.2 °F 35.4 °F 30.1 in WNW 5.3 mph 7 mph 93% 0 in 65 W/m2
08:59 37.2 °F 35.4 °F 30.1 in WNW 4.7 mph 7 mph 93% 0 in 72 W/m2
09:04 37.2 °F 35.4 °F 30.1 in West 4.5 mph 7 mph 93% 0 in 72 W/m2
09:09 37.2 °F 35.4 °F 30.1 in West 4.3 mph 7 mph 93% 0 in 69 W/m2
09:14 37.4 °F 35.6 °F 30.1 in WNW 5 mph 8.1 mph 93% 0 in 84 W/m2
09:19 37.4 °F 35.4 °F 30.1 in WNW 5 mph 8.1 mph 92.3% 0 in 84 W/m2
09:24 37.4 °F 35.4 °F 30.1 in WNW 5.8 mph 8.1 mph 92% 0 in 84 W/m2
09:29 37.4 °F 35.2 °F 30.1 in WNW 5.8 mph 8.1 mph 92% 0 in 83 W/m2
09:34 37.6 °F 35.4 °F 30.1 in WNW 4.9 mph 8 mph 92% 0 in 86 W/m2
09:39 37.8 °F 35.6 °F 30.1 in West 3.5 mph 5.8 mph 92% 0 in 88 W/m2
09:44 37.9 °F 35.8 °F 30.1 in West 3 mph 5 mph 92% 0 in 93 W/m2
09:49 38.1 °F 36 °F 30.1 in WNW 3.7 mph 6 mph 92% 0 in 98 W/m2
09:54 38.1 °F 36.1 °F 30.1 in WNW 4.4 mph 7 mph 92% 0 in 102 W/m2
09:59 38.3 °F 36.3 °F 30.1 in WNW 4.9 mph 8.1 mph 92% 0 in 105 W/m2
10:04 38.5 °F 36.3 °F 30.1 in WNW 4.5 mph 8.1 mph 91.8% 0 in 114 W/m2
10:09 38.7 °F 36.5 °F 30.1 in WNW 3.6 mph 7 mph 92% 0 in 125 W/m2
10:14 38.8 °F 36.5 °F 30.1 in West 3.8 mph 6 mph 91.2% 0 in 128 W/m2
10:19 39 °F 36.7 °F 30.1 in West 4.3 mph 6 mph 91% 0 in 132 W/m2
10:24 39.4 °F 36.9 °F 30.1 in West 2.4 mph 6 mph 91% 0 in 135 W/m2
10:29 39.6 °F 37.2 °F 30.1 in West 2.9 mph 5 mph 91% 0 in 144 W/m2
10:34 39.7 °F 37.4 °F 30.1 in West 3.7 mph 6 mph 91% 0 in 144 W/m2
10:39 39.7 °F 37.4 °F 30.1 in WSW 3.1 mph 6 mph 91% 0 in 146 W/m2
10:44 39.9 °F 37.6 °F 30.1 in West 3 mph 6 mph 91% 0 in 148 W/m2
10:49 40.3 °F 37.8 °F 30.1 in West 2.9 mph 5 mph 90.8% 0 in 149 W/m2
10:54 40.6 °F 37.9 °F 30.1 in West 3.7 mph 7 mph 90.1% 0 in 151 W/m2
10:59 40.8 °F 38.1 °F 30.1 in West 3.9 mph 7 mph 90% 0 in 156 W/m2
11:04 41 °F 38.3 °F 30.1 in West 3.9 mph 7 mph 90% 0 in 165 W/m2
11:09 41.4 °F 38.7 °F 30.1 in West 4.8 mph 7 mph 90% 0 in 172 W/m2
11:14 41.4 °F 38.5 °F 30.1 in West 4.8 mph 8.1 mph 89.8% 0 in 174 W/m2
11:19 41.2 °F 38.5 °F 30.1 in West 3.2 mph 8 mph 89.5% 0 in 183 W/m2
11:24 41.5 °F 38.8 °F 30.1 in West 4.8 mph 8.1 mph 90% 0 in 207 W/m2
11:29 42.1 °F 39.4 °F 30.1 in West 4.4 mph 8.1 mph 90% 0 in 237 W/m2
11:34 42.3 °F 39.4 °F 30.1 in WSW 3.1 mph 8 mph 89.2% 0 in 251 W/m2
11:39 42.3 °F 39.4 °F 30.1 in WSW 4.7 mph 7 mph 89.2% 0 in 255 W/m2
11:44 42.6 °F 39.7 °F 30.1 in WSW 5.6 mph 9.2 mph 89.3% 0 in 272 W/m2
11:49 43 °F 39.9 °F 30.1 in WSW 4.2 mph 9 mph 89% 0 in 281 W/m2
11:54 43.2 °F 40.3 °F 30.1 in West 2.7 mph 7 mph 89% 0 in 214 W/m2
11:59 43.5 °F 40.5 °F 30.1 in West 3.8 mph 6 mph 89% 0 in 176 W/m2
12:04 43.5 °F 40.3 °F 30.1 in WSW 4.5 mph 7 mph 88.4% 0 in 163 W/m2
12:09 43.3 °F 40.1 °F 30.1 in WSW 4.7 mph 7 mph 88.2% 0 in 158 W/m2
12:14 43.7 °F 40.6 °F 30.1 in West 4.7 mph 7 mph 88.8% 0 in 160 W/m2
12:19 43.5 °F 40.5 °F 30.1 in WSW 5.2 mph 8.1 mph 88.4% 0 in 155 W/m2
12:24 43.7 °F 40.6 °F 30.1 in West 5.1 mph 8.1 mph 88.4% 0 in 128 W/m2
12:29 43.9 °F 40.8 °F 30.1 in West 4.2 mph 8.1 mph 88.6% 0 in 118 W/m2
12:34 43.9 °F 40.6 °F 30.1 in WSW 5 mph 8 mph 88% 0 in 113 W/m2
12:39 43.9 °F 40.5 °F 30.1 in West 4.9 mph 7 mph 88% 0 in 111 W/m2
12:44 44.1 °F 40.6 °F 30.1 in West 5.2 mph 7 mph 88% 0 in 109 W/m2
12:49 44.1 °F 40.8 °F 30.1 in West 5.3 mph 7 mph 88% 0 in 107 W/m2
12:54 44.2 °F 40.8 °F 30.1 in West 4.1 mph 8 mph 87.8% 0 in 107 W/m2
12:59 44.4 °F 41 °F 30.1 in West 4.7 mph 8.1 mph 88% 0 in 116 W/m2
13:04 44.4 °F 41.2 °F 30.1 in West 4 mph 8 mph 88% 0 in 132 W/m2
13:09 44.6 °F 41.2 °F 30.1 in West 3.9 mph 6 mph 88% 0 in 162 W/m2
13:14 44.8 °F 41.2 °F 30.1 in West 4.5 mph 7 mph 87.2% 0 in 190 W/m2
13:19 45 °F 41.4 °F 30.1 in West 5.2 mph 7 mph 87% 0 in 251 W/m2
13:24 45.1 °F 41.5 °F 30.1 in West 4.7 mph 7 mph 87% 0 in 251 W/m2
13:29 45.5 °F 41.7 °F 30.1 in West 4.8 mph 7 mph 86.4% 0 in 202 W/m2
13:34 45.7 °F 41.9 °F 30.1 in WSW 4 mph 7 mph 86.2% 0 in 202 W/m2
13:39 45.5 °F 41.7 °F 30.1 in West 4.3 mph 7 mph 86% 0 in 169 W/m2
13:44 45.5 °F 41.5 °F 30.1 in WSW 5.3 mph 7 mph 86% 0 in 158 W/m2
13:49 45.3 °F 41.5 °F 30.1 in West 4.9 mph 8.1 mph 86.5% 0 in 149 W/m2
13:54 45.3 °F 41.5 °F 30.1 in West 4.3 mph 8 mph 86% 0 in 163 W/m2
13:59 45.5 °F 41.5 °F 30.1 in West 5.4 mph 8.1 mph 85.7% 0 in 128 W/m2
14:04 45.5 °F 41.4 °F 30.1 in West 4.3 mph 8.1 mph 85% 0 in 134 W/m2
14:09 45.7 °F 41.4 °F 30.1 in West 4.5 mph 7 mph 85% 0 in 155 W/m2
14:14 45.7 °F 41.4 °F 30.1 in West 4.3 mph 7 mph 85% 0 in 190 W/m2
14:19 45.9 °F 41.7 °F 30.1 in West 4.4 mph 7 mph 85% 0 in 243 W/m2
14:24 46.4 °F 41.9 °F 30.1 in West 4.1 mph 7 mph 84.7% 0 in 243 W/m2
14:29 46.6 °F 42.1 °F 30.1 in West 3.9 mph 6 mph 84% 0 in 229 W/m2
14:34 46.8 °F 42.1 °F 30.1 in West 3.2 mph 7 mph 84% 0 in 225 W/m2
14:39 46.8 °F 41.9 °F 30.1 in West 4.7 mph 8.1 mph 83.4% 0 in 220 W/m2
14:44 46.6 °F 41.7 °F 30.1 in West 5.2 mph 8.1 mph 83% 0 in 193 W/m2
14:49 46.6 °F 41.7 °F 30.1 in West 4.9 mph 8 mph 83% 0 in 162 W/m2
14:54 46.6 °F 41.9 °F 30.1 in West 3.5 mph 5.8 mph 83.4% 0 in 156 W/m2
14:59 46.6 °F 41.9 °F 30.1 in West 3.9 mph 6 mph 83.8% 0 in 144 W/m2
15:04 46.4 °F 41.9 °F 30.1 in West 4.3 mph 7 mph 84% 0 in 127 W/m2
15:09 46.2 °F 41.9 °F 30.1 in West 4.6 mph 7 mph 84.6% 0 in 116 W/m2
15:14 46.2 °F 41.9 °F 30.1 in West 4.7 mph 7 mph 85% 0 in 105 W/m2
15:19 46 °F 41.7 °F 30.1 in West 4.3 mph 7 mph 85% 0 in 100 W/m2
15:24 45.9 °F 41.5 °F 30.1 in West 4.4 mph 7 mph 84.9% 0 in 91 W/m2
15:29 45.9 °F 41.2 °F 30.1 in West 5 mph 7 mph 84% 0 in 86 W/m2
15:34 45.9 °F 41.4 °F 30.1 in West 4.2 mph 6.9 mph 84.4% 0 in 79 W/m2
15:39 45.9 °F 41.5 °F 30.1 in West 2.8 mph 6 mph 85% 0 in 69 W/m2
15:44 45.9 °F 41.5 °F 30.1 in West 2.5 mph 5 mph 85% 0 in 60 W/m2
15:49 45.9 °F 41.5 °F 30.1 in West 2.6 mph 5 mph 85% 0 in 53 W/m2
15:54 45.9 °F 41.5 °F 30.1 in West 2.7 mph 5 mph 85% 0 in 44 W/m2
15:59 45.7 °F 41.5 °F 30.1 in West 3.2 mph 5 mph 85.2% 0 in 35 W/m2
16:04 45.5 °F 41.4 °F 30.1 in West 3.2 mph 6 mph 85% 0 in 28 W/m2
16:09 45.3 °F 41.4 °F 30.1 in West 3.3 mph 6 mph 85.5% 0 in 21 W/m2
16:14 45.1 °F 41.4 °F 30.1 in West 3.5 mph 5 mph 86.1% 0 in 16 W/m2
16:19 45 °F 41.4 °F 30.1 in West 2.5 mph 4 mph 87% 0 in 14 W/m2
16:24 44.8 °F 41.2 °F 30.1 in West 3.3 mph 5 mph 87% 0 in 11 W/m2
16:29 44.6 °F 41 °F 30.1 in West 3 mph 5 mph 87% 0 in 7 W/m2
16:34 44.4 °F 41 °F 30.1 in West 2.8 mph 5 mph 87.4% 0 in 9 W/m2
16:39 44.4 °F 41.2 °F 30.1 in West 3.5 mph 5 mph 88% 0 in 11 W/m2
16:44 44.2 °F 41.2 °F 30.1 in West 3.6 mph 5 mph 88.4% 0 in 9 W/m2
16:49 44.1 °F 41.2 °F 30.1 in West 3 mph 5 mph 89% 0 in 0 W/m2
16:54 43.9 °F 41 °F 30.1 in West 3 mph 5 mph 89% 0 in 0 W/m2
16:59 43.7 °F 40.8 °F 30.1 in West 2.9 mph 4 mph 89.5% 0 in 0 W/m2
17:04 43.5 °F 40.8 °F 30.1 in West 1.7 mph 4 mph 90% 0 in 0 W/m2
17:09 43.3 °F 40.6 °F 30.1 in West 1.4 mph 3.5 mph 90% 0 in 0 W/m2
17:14 43.2 °F 40.5 °F 30.1 in West 1.5 mph 3.5 mph 90% 0 in 0 W/m2
17:19 43 °F 40.3 °F 30.1 in West 0.8 mph 3 mph 90.3% 0 in 0 W/m2
17:24 42.8 °F 40.3 °F 30.1 in WNW 1.9 mph 3.5 mph 91% 0 in 0 W/m2
17:29 42.6 °F 40.1 °F 30.1 in West 2.4 mph 4 mph 91% 0 in 0 W/m2
17:34 42.4 °F 39.9 °F 30.1 in West 1.7 mph 4 mph 91% 0 in 0 W/m2
17:39 42.3 °F 39.7 °F 30.1 in West 0.8 mph 4 mph 91% 0 in 0 W/m2
17:44 41.9 °F 39.6 °F 30.1 in WSW 0.3 mph 2.3 mph 91% 0 in 0 W/m2
17:49 41.7 °F 39.6 °F 30.1 in WSW 0.2 mph 1.2 mph 91.8% 0 in 0 W/m2
17:54 41.5 °F 39.4 °F 30.1 in West 1.7 mph 4 mph 92% 0 in 0 W/m2
17:59 41.4 °F 39.2 °F 30.1 in West 2.1 mph 4 mph 92% 0 in 0 W/m2
18:04 41.2 °F 39.2 °F 30.1 in WSW 0.7 mph 3.5 mph 92% 0 in 0 W/m2
18:09 41.2 °F 39 °F 30.1 in WSW 1.1 mph 3 mph 92% 0 in 0 W/m2
18:14 40.8 °F 38.8 °F 30.1 in West 2 mph 3.5 mph 92% 0 in 0 W/m2
18:19 40.6 °F 38.5 °F 30.1 in West 1.9 mph 3.5 mph 92.1% 0 in 0 W/m2
18:24 40.5 °F 38.7 °F 30.1 in West 1.4 mph 3 mph 93% 0 in 0 W/m2
18:29 40.3 °F 38.5 °F 30.1 in West 1.2 mph 2.3 mph 93% 0 in 0 W/m2
18:34 40.1 °F 38.3 °F 30.1 in WSW 0.9 mph 2.3 mph 93% 0 in 0 W/m2
18:39 40.1 °F 38.3 °F 30.1 in WSW 1.8 mph 3.5 mph 93% 0 in 0 W/m2
18:44 39.9 °F 37.9 °F 30.1 in WSW 3 mph 4 mph 93% 0 in 0 W/m2
18:49 39.7 °F 37.8 °F 30.1 in WSW 2.8 mph 4 mph 93% 0 in 0 W/m2
18:54 39.6 °F 37.9 °F 30.1 in West 2.5 mph 4 mph 93.9% 0 in 0 W/m2
18:59 39.6 °F 37.9 °F 30.1 in West 1.9 mph 4 mph 94% 0 in 0 W/m2
19:04 39.4 °F 37.9 °F 30.1 in WSW 1.6 mph 3 mph 94% 0 in 0 W/m2
19:09 39.6 °F 37.9 °F 30.1 in West 1.9 mph 3.5 mph 94% 0 in 0 W/m2
19:14 39.4 °F 37.8 °F 30.1 in West 1.9 mph 3.5 mph 94% 0 in 0 W/m2
19:19 39.4 °F 37.8 °F 30.1 in West 1.7 mph 3.5 mph 94% 0 in 0 W/m2
19:24 39.4 °F 37.8 °F 30.1 in West 1.9 mph 3.5 mph 94% 0 in 0 W/m2
19:29 39.2 °F 37.6 °F 30.1 in West 1.7 mph 3.5 mph 94% 0 in 0 W/m2
19:34 39.2 °F 37.6 °F 30.1 in West 1.1 mph 3 mph 94% 0 in 0 W/m2
19:39 39 °F 37.4 °F 30.1 in West 0.2 mph 2 mph 94% 0 in 0 W/m2
19:44 38.8 °F 37.2 °F 30.1 in Calm   1 mph 94% 0 in 0 W/m2
19:49 38.7 °F 37 °F 30.1 in Calm     94% 0 in 0 W/m2
19:54 38.5 °F 36.9 °F 30.1 in Calm     94% 0 in 0 W/m2
19:59 38.5 °F 36.9 °F 30.1 in Calm     94% 0 in 0 W/m2
20:04 38.7 °F 37.2 °F 30.1 in Calm     95% 0 in 0 W/m2
20:09 38.7 °F 37 °F 30.1 in Calm     94.2% 0 in 0 W/m2
20:14 38.5 °F 37 °F 30.1 in Calm     94.4% 0 in 0 W/m2
20:19 38.7 °F 37.4 °F 30.1 in Calm     95% 0 in 0 W/m2
20:24 38.7 °F 37.4 °F 30.1 in Calm     95% 0 in 0 W/m2
20:29 38.7 °F 37.4 °F 30.1 in Calm     95% 0 in 0 W/m2
20:34 38.3 °F 37 °F 30.1 in Calm     95% 0 in 0 W/m2
20:39 38.3 °F 37 °F 30.1 in WSW 0.6 mph 3.5 mph 95% 0 in 0 W/m2
20:44 38.3 °F 36.9 °F 30.1 in WSW 1.7 mph 3.5 mph 95% 0 in 0 W/m2
20:49 38.3 °F 37 °F 30.1 in WSW 2.2 mph 3.5 mph 95% 0 in 0 W/m2
20:54 38.1 °F 36.9 °F 30.1 in WSW 1.9 mph 3.5 mph 95% 0 in 0 W/m2
20:59 38.3 °F 36.9 °F 30.1 in West 1.4 mph 3 mph 95% 0 in 0 W/m2
21:04 38.1 °F 36.9 °F 30.1 in West 2 mph 3.5 mph 95% 0 in 0 W/m2
21:09 37.9 °F 36.7 °F 30.1 in West 1.6 mph 3.5 mph 95% 0 in 0 W/m2
21:14 37.6 °F 36.3 °F 30.1 in WSW 2.1 mph 3.5 mph 95% 0 in 0 W/m2
21:19 37.4 °F 36.1 °F 30.1 in WSW 1.7 mph 3.5 mph 95% 0 in 0 W/m2
21:24 37.4 °F 36 °F 30.1 in WSW 0.6 mph 3 mph 95% 0 in 0 W/m2
21:29 37.4 °F 36.1 °F 30.1 in West 0.7 mph 3.5 mph 95% 0 in 0 W/m2
21:34 37.4 °F 36 °F 30.1 in West 1.5 mph 3 mph 95% 0 in 0 W/m2
21:39 37.2 °F 36 °F 30.1 in West 1 mph 2.3 mph 95% 0 in 0 W/m2
21:44 37.2 °F 36 °F 30.1 in West 1 mph 2.3 mph 95% 0 in 0 W/m2
21:49 37.2 °F 36 °F 30.1 in West 0.4 mph 2 mph 95% 0 in 0 W/m2
21:54 37.2 °F 36 °F 30.1 in West 0.1 mph 2 mph 95% 0 in 0 W/m2
21:59 37.2 °F 36 °F 30.1 in West 1.7 mph 3.5 mph 95% 0 in 0 W/m2
22:04 36.9 °F 35.6 °F 30.1 in West 1.6 mph 3.5 mph 95% 0 in 0 W/m2
22:09 36.9 °F 35.6 °F 30.1 in West 0.7 mph 2.3 mph 95% 0 in 0 W/m2
22:14 37 °F 35.8 °F 30.1 in West 0.2 mph 2 mph 95.2% 0 in 0 W/m2
22:19 37.2 °F 36 °F 30.1 in Calm   1 mph 95% 0 in 0 W/m2
22:24 37.4 °F 36.3 °F 30.1 in Calm     95.8% 0 in 0 W/m2
22:29 37.4 °F 36.5 °F 30.1 in Calm     96% 0 in 0 W/m2
22:34 37.6 °F 36.5 °F 30.1 in West 0.4 mph 2.3 mph 96% 0 in 0 W/m2
22:39 37.6 °F 36.5 °F 30.1 in West 2 mph 3.5 mph 96% 0 in 0 W/m2
22:44 37.6 °F 36.5 °F 30.1 in West 1.7 mph 3.5 mph 95.8% 0 in 0 W/m2
22:49 37.8 °F 36.7 °F 30.1 in West 1.1 mph 3.5 mph 96% 0 in 0 W/m2
22:54 38.3 °F 37.2 °F 30.1 in NNE 1.1 mph 3.5 mph 96% 0 in 0 W/m2
22:59 38.5 °F 37.6 °F 30.1 in NNE 0.6 mph 2.3 mph 96% 0 in 0 W/m2
23:04 38.8 °F 37.8 °F 30.1 in NNE 0.3 mph 2 mph 96% 0 in 0 W/m2
23:09 38.8 °F 37.9 °F 30.1 in Calm   1.2 mph 96% 0 in 0 W/m2
23:14 39 °F 37.9 °F 30.1 in NNE 0.2 mph 1.2 mph 96% 0 in 0 W/m2
23:19 39 °F 37.9 °F 30.1 in NNE 0.2 mph 1.2 mph 96% 0 in 0 W/m2
23:24 39 °F 38.1 °F 30.1 in Calm   1.2 mph 96% 0 in 0 W/m2
23:29 39 °F 38.1 °F 30.1 in Calm     96% 0 in 0 W/m2
23:34 39 °F 38.1 °F 30.1 in NNE 0.2 mph 1.2 mph 96% 0 in 0 W/m2
23:39 39 °F 37.9 °F 30.1 in NNE 0.1 mph 1.2 mph 96% 0 in 0 W/m2
23:44 38.8 °F 37.8 °F 30.1 in Calm   1 mph 96% 0 in 0 W/m2
23:49 38.5 °F 37.6 °F 30.1 in Calm     96% 0 in 0 W/m2
23:54 38.7 °F 37.6 °F 30.1 in Calm     96% 0 in 0 W/m2
23:59 38.7 °F 37.6 °F 30.1 in Calm     96% 0 in 0 W/m2
Stazione Meteorologica MeteoMincio Rivalta s/M (MN)
Con i complimenti di Weather Underground - 4 mb


METEO PILLOLE
La più intensa nevicata in 24 ore
Silver Lake - Colorado
Tra il 14 e il 15 aprile 1921 caddero 193 cm di neve
C'è anche un altro dato, ma non è ufficiale, a Roccacaramanico (1050m) in Abruzzo - Italia, Il 17 dicembre 1961 caddero 340 cm di neve.

Do NOT follow this link or you will be banned from the site!